KBBF

Brazos 133

Brazos 133, Texas, USA
METAR KBBF 211315Z AUTO 21011KT 10SM SCT020 29/24 A3000 RMK A01
Observed Flight Rules
Jul-21 @ 13:15 UTC (28 minutes ago) Visual Flight Rules
Wind Visibility Clouds
210° at 11 knots 10 miles
  • Scattered at 2,000' AGL
Temperatures Readings
Current 29°C / 84°F
Dewpoint 24°C / 75°F
Humidity 74%
Altimeter 30" Hg
Pressure 1016 hPa
Elevation 36
METAR KBBF 211315Z AUTO 21011KT 10SM SCT020 29/24 A3000 RMK A01
Observed Flight Rules
Jul-21 @ 13:15 UTC
(28 minutes ago)
VFR
Wind Visibility
210° at 11 knots 10 miles
Clouds
  • Scattered at 2,000' AGL
Temperature Dewpoint
29°C / 84°F 24°C / 75°F
Humidity Altimeter Pressure
74% 30" Hg 1016 hPa